createdAt,value
2022-12-11T00:02:17.382Z,98585.00
2022-12-11T00:08:19.565Z,98579.00
2022-12-11T00:14:21.619Z,98571.00
2022-12-11T00:20:23.672Z,98568.00
2022-12-11T00:26:26.173Z,98574.00
2022-12-11T00:32:29.128Z,98552.00
2022-12-11T00:38:32.477Z,98548.00
2022-12-11T00:44:34.888Z,98537.00
2022-12-11T00:50:37.917Z,98511.00
2022-12-11T00:56:40.408Z,98489.00
2022-12-11T01:02:42.575Z,98496.00
2022-12-11T01:08:46.311Z,98477.00
2022-12-11T01:14:48.452Z,98459.00
2022-12-11T01:20:50.982Z,98438.00
2022-12-11T01:26:53.158Z,98445.00
2022-12-11T01:32:55.584Z,98443.00
2022-12-11T01:38:58.974Z,98435.00
2022-12-11T01:45:26.599Z,98432.00
2022-12-11T01:51:31.873Z,98417.00
2022-12-11T01:57:34.272Z,98405.00
2022-12-11T02:03:36.528Z,98390.00
2022-12-11T02:09:41.662Z,98377.00
2022-12-11T02:16:02.773Z,98377.00
2022-12-11T02:22:10.890Z,98366.00
2022-12-11T02:28:18.886Z,98352.00
2022-12-11T02:34:29.009Z,98345.00
2022-12-11T02:40:33.189Z,98351.00
2022-12-11T02:46:37.540Z,98328.00
2022-12-11T02:52:41.984Z,98303.00
2022-12-11T02:58:52.641Z,98311.00
2022-12-11T03:04:58.034Z,98294.00
2022-12-11T03:10:59.983Z,98287.00
2022-12-11T03:17:17.476Z,98281.00
2022-12-11T03:23:25.778Z,98284.00
2022-12-11T03:29:36.958Z,98264.00
2022-12-11T03:35:49.185Z,98249.00
2022-12-11T03:41:52.622Z,98248.00
2022-12-11T03:47:57.230Z,98230.00
2022-12-11T03:54:00.205Z,98220.00
2022-12-11T04:00:05.455Z,98210.00
2022-12-11T04:06:13.992Z,98209.00
2022-12-11T04:12:16.392Z,98213.00
2022-12-11T04:18:37.236Z,98204.00
2022-12-11T04:24:39.575Z,98206.00
2022-12-11T04:30:41.812Z,98222.00
2022-12-11T04:36:44.142Z,98201.00
2022-12-11T04:42:46.634Z,98205.00
2022-12-11T04:48:55.447Z,98209.00
2022-12-11T04:55:19.352Z,98198.00
2022-12-11T05:01:22.776Z,98199.00
2022-12-11T05:07:25.210Z,98198.00
2022-12-11T05:13:28.355Z,98190.00
2022-12-11T05:19:30.701Z,98182.00
2022-12-11T05:25:32.860Z,98181.00
2022-12-11T05:31:34.987Z,98192.00
2022-12-11T05:37:37.184Z,98184.00
2022-12-11T05:43:39.389Z,98190.00
2022-12-11T05:49:41.610Z,98209.00
2022-12-11T05:55:43.851Z,98209.00
2022-12-11T06:01:46.347Z,98213.00
2022-12-11T06:07:48.676Z,98237.00
2022-12-11T06:13:51.315Z,98244.00
2022-12-11T06:20:11.190Z,98248.00
2022-12-11T06:26:14.727Z,98246.00
2022-12-11T06:32:17.276Z,98255.00
2022-12-11T06:38:19.589Z,98268.00
2022-12-11T06:44:21.810Z,98263.00
2022-12-11T06:50:23.876Z,98293.00
2022-12-11T06:56:26.439Z,98297.00
2022-12-11T07:02:28.749Z,98298.00
2022-12-11T07:08:32.298Z,98318.00
2022-12-11T07:14:34.648Z,98298.00
2022-12-11T07:20:37.026Z,98308.00
2022-12-11T07:26:39.438Z,98320.00
2022-12-11T07:32:41.938Z,98333.00
2022-12-11T07:38:44.232Z,98354.00
2022-12-11T07:44:46.259Z,98373.00
2022-12-11T07:50:48.466Z,98387.00
2022-12-11T07:56:53.678Z,98403.00
2022-12-11T08:02:56.123Z,98402.00
2022-12-11T08:09:00.000Z,98379.00
2022-12-11T08:15:02.488Z,98331.00
2022-12-11T08:21:08.540Z,98278.00
2022-12-11T08:27:10.732Z,98283.00
2022-12-11T08:33:13.018Z,98350.00
2022-12-11T08:39:15.373Z,98388.00
2022-12-11T08:45:17.502Z,98387.00
2022-12-11T08:51:23.089Z,98394.00
2022-12-11T08:57:25.205Z,98397.00
2022-12-11T09:03:47.572Z,98394.00
2022-12-11T09:09:49.893Z,98401.00
2022-12-11T09:15:52.021Z,98400.00
2022-12-11T09:21:54.438Z,98382.00
2022-12-11T09:27:56.757Z,98390.00
2022-12-11T09:34:02.087Z,98382.00
2022-12-11T09:40:07.757Z,98391.00
2022-12-11T09:46:13.785Z,98413.00
2022-12-11T09:52:32.108Z,98397.00
2022-12-11T09:58:41.158Z,98391.00
2022-12-11T10:04:52.582Z,98386.00
2022-12-11T10:11:27.204Z,98379.00
2022-12-11T10:17:32.361Z,98387.00
2022-12-11T10:23:43.715Z,98396.00
2022-12-11T10:29:47.342Z,98391.00
2022-12-11T10:35:53.756Z,98379.00
2022-12-11T10:41:57.458Z,98410.00
2022-12-11T10:48:07.736Z,98385.00
2022-12-11T10:54:29.502Z,98375.00
2022-12-11T11:00:38.756Z,98358.00
2022-12-11T11:06:41.726Z,98374.00
2022-12-11T11:12:47.967Z,98379.00
2022-12-11T11:18:57.168Z,98362.00
2022-12-11T11:25:00.139Z,98360.00
2022-12-11T11:31:04.627Z,98351.00
2022-12-11T11:37:30.554Z,98350.00
2022-12-11T11:43:49.328Z,98362.00
2022-12-11T11:50:03.478Z,98378.00
2022-12-11T11:56:21.496Z,98391.00
2022-12-11T12:02:24.093Z,98407.00
2022-12-11T16:56:02.447Z,98614.00
2022-12-11T17:02:04.968Z,98617.00
2022-12-11T17:08:07.828Z,98640.00
2022-12-11T17:14:10.437Z,98661.00
2022-12-11T17:20:20.842Z,98672.00
2022-12-11T17:26:25.531Z,98689.00
2022-12-11T17:32:27.807Z,98692.00
2022-12-11T17:38:29.925Z,98698.00
2022-12-11T17:44:32.176Z,98698.00
2022-12-11T17:50:34.373Z,98689.00
2022-12-11T17:56:37.106Z,98706.00
2022-12-11T18:02:39.733Z,98720.00
2022-12-11T18:08:42.594Z,98721.00
2022-12-11T18:14:44.867Z,98733.00
2022-12-11T18:20:48.667Z,98730.00
2022-12-11T18:26:50.728Z,98741.00
2022-12-11T18:32:52.852Z,98712.00
2022-12-11T18:38:59.569Z,98736.00
2022-12-11T18:45:02.192Z,98719.00
2022-12-11T18:51:11.780Z,98713.00
2022-12-11T18:57:14.225Z,98725.00
2022-12-11T19:03:16.761Z,98707.00
2022-12-11T19:09:19.092Z,98717.00
2022-12-11T19:15:24.004Z,98731.00
2022-12-11T19:21:42.993Z,98762.00
2022-12-11T19:27:47.313Z,98768.00
2022-12-11T19:33:50.169Z,98752.00
2022-12-11T19:39:52.392Z,98760.00
2022-12-11T19:45:54.831Z,98758.00
2022-12-11T19:51:57.074Z,98780.00
2022-12-11T19:57:59.506Z,98758.00
2022-12-11T20:04:07.332Z,98774.00
2022-12-11T20:10:09.785Z,98783.00
2022-12-11T20:16:13.510Z,98802.00
2022-12-11T20:22:15.891Z,98824.00
2022-12-11T20:28:18.622Z,98822.00
2022-12-11T20:34:20.929Z,98821.00
2022-12-11T20:40:23.152Z,98826.00
2022-12-11T20:46:27.600Z,98838.00
2022-12-11T20:52:29.830Z,98829.00
2022-12-11T20:58:32.831Z,98836.00
2022-12-11T21:04:41.300Z,98844.00
2022-12-11T21:10:46.482Z,98840.00
2022-12-11T21:16:48.863Z,98845.00
2022-12-11T21:22:50.993Z,98852.00
2022-12-11T21:28:53.590Z,98859.00
2022-12-11T21:34:56.214Z,98863.00
2022-12-11T21:40:58.348Z,98864.00
2022-12-11T21:47:00.695Z,98875.00
2022-12-11T21:53:02.972Z,98885.00
2022-12-11T21:59:05.867Z,98879.00
2022-12-11T22:05:08.705Z,98872.00
2022-12-11T22:11:11.372Z,98877.00
2022-12-11T22:17:13.413Z,98876.00
2022-12-11T22:23:18.689Z,98873.00
2022-12-11T22:29:21.010Z,98882.00
2022-12-11T22:35:27.160Z,98894.00
2022-12-11T22:41:32.034Z,98884.00
2022-12-11T22:47:34.122Z,98896.00
2022-12-11T22:53:36.849Z,98897.00
2022-12-11T22:59:39.124Z,98908.00
2022-12-11T23:05:41.515Z,98890.00
2022-12-11T23:11:44.029Z,98913.00
2022-12-11T23:17:46.522Z,98918.00
2022-12-11T23:23:49.037Z,98916.00
2022-12-11T23:29:51.345Z,98926.00
2022-12-11T23:35:53.648Z,98922.00
2022-12-11T23:41:56.252Z,98922.00
2022-12-11T23:47:58.718Z,98938.00
2022-12-11T23:54:05.150Z,98957.00
